sensor_id;sensor_type;location;lat;lon;timestamp;P1;durP1;ratioP1;P2;durP2;ratioP2
34459;SDS011;20704;51.260;22.558;2023-10-08T00:01:44;7.10;;;3.15;;
34459;SDS011;20704;51.260;22.558;2023-10-08T00:03:48;9.52;;;4.22;;
34459;SDS011;20704;51.260;22.558;2023-10-08T00:06:02;15.63;;;3.63;;
34459;SDS011;20704;51.260;22.558;2023-10-08T00:08:08;8.38;;;3.70;;
34459;SDS011;20704;51.260;22.558;2023-10-08T00:10:11;8.95;;;3.20;;
34459;SDS011;20704;51.260;22.558;2023-10-08T00:12:14;8.30;;;3.53;;
34459;SDS011;20704;51.260;22.558;2023-10-08T00:14:18;5.30;;;2.78;;
34459;SDS011;20704;51.260;22.558;2023-10-08T00:16:23;10.23;;;3.95;;
34459;SDS011;20704;51.260;22.558;2023-10-08T00:18:26;6.90;;;2.88;;
34459;SDS011;20704;51.260;22.558;2023-10-08T00:20:29;5.20;;;2.50;;
34459;SDS011;20704;51.260;22.558;2023-10-08T00:22:37;7.70;;;3.75;;
34459;SDS011;20704;51.260;22.558;2023-10-08T00:24:40;8.07;;;2.85;;
34459;SDS011;20704;51.260;22.558;2023-10-08T00:26:43;7.80;;;2.63;;
34459;SDS011;20704;51.260;22.558;2023-10-08T00:28:46;7.15;;;2.55;;
34459;SDS011;20704;51.260;22.558;2023-10-08T00:30:49;10.95;;;2.63;;
34459;SDS011;20704;51.260;22.558;2023-10-08T00:32:51;7.57;;;2.70;;
34459;SDS011;20704;51.260;22.558;2023-10-08T00:34:54;7.25;;;2.50;;
34459;SDS011;20704;51.260;22.558;2023-10-08T00:36:57;9.98;;;3.08;;
34459;SDS011;20704;51.260;22.558;2023-10-08T00:39:00;6.07;;;2.30;;
34459;SDS011;20704;51.260;22.558;2023-10-08T00:41:05;4.90;;;1.85;;
34459;SDS011;20704;51.260;22.558;2023-10-08T00:43:08;6.95;;;2.60;;
34459;SDS011;20704;51.260;22.558;2023-10-08T00:45:12;5.47;;;2.10;;
34459;SDS011;20704;51.260;22.558;2023-10-08T00:47:18;4.32;;;1.65;;
34459;SDS011;20704;51.260;22.558;2023-10-08T00:49:25;3.72;;;1.70;;
34459;SDS011;20704;51.260;22.558;2023-10-08T00:51:52;4.75;;;2.55;;
34459;SDS011;20704;51.260;22.558;2023-10-08T00:54:21;6.82;;;1.85;;
34459;SDS011;20704;51.260;22.558;2023-10-08T00:56:26;4.53;;;1.50;;
34459;SDS011;20704;51.260;22.558;2023-10-08T00:58:46;5.60;;;1.98;;
34459;SDS011;20704;51.260;22.558;2023-10-08T01:00:51;3.13;;;1.73;;
34459;SDS011;20704;51.260;22.558;2023-10-08T01:03:01;3.50;;;1.13;;
34459;SDS011;20704;51.260;22.558;2023-10-08T01:05:13;4.75;;;1.45;;
34459;SDS011;20704;51.260;22.558;2023-10-08T01:07:17;3.75;;;1.30;;
34459;SDS011;20704;51.260;22.558;2023-10-08T01:09:20;4.25;;;1.77;;
34459;SDS011;20704;51.260;22.558;2023-10-08T01:11:31;4.50;;;1.25;;
34459;SDS011;20704;51.260;22.558;2023-10-08T01:13:55;2.72;;;0.85;;
34459;SDS011;20704;51.260;22.558;2023-10-08T01:16:00;4.78;;;0.90;;
34459;SDS011;20704;51.260;22.558;2023-10-08T01:18:03;3.92;;;1.10;;
34459;SDS011;20704;51.260;22.558;2023-10-08T01:20:08;4.82;;;1.13;;
34459;SDS011;20704;51.260;22.558;2023-10-08T01:22:23;4.75;;;1.30;;
34459;SDS011;20704;51.260;22.558;2023-10-08T01:24:30;3.10;;;0.90;;
34459;SDS011;20704;51.260;22.558;2023-10-08T01:26:38;3.67;;;1.25;;
34459;SDS011;20704;51.260;22.558;2023-10-08T01:28:42;1.63;;;0.70;;
34459;SDS011;20704;51.260;22.558;2023-10-08T01:30:45;1.83;;;0.50;;
34459;SDS011;20704;51.260;22.558;2023-10-08T01:32:49;6.13;;;1.23;;
34459;SDS011;20704;51.260;22.558;2023-10-08T01:34:52;4.63;;;0.70;;
34459;SDS011;20704;51.260;22.558;2023-10-08T01:36:55;1.73;;;0.88;;
34459;SDS011;20704;51.260;22.558;2023-10-08T01:38:58;2.08;;;1.00;;
34459;SDS011;20704;51.260;22.558;2023-10-08T01:41:03;3.25;;;1.02;;
34459;SDS011;20704;51.260;22.558;2023-10-08T01:43:20;4.43;;;0.93;;
34459;SDS011;20704;51.260;22.558;2023-10-08T01:45:23;1.70;;;0.77;;
34459;SDS011;20704;51.260;22.558;2023-10-08T01:47:26;3.35;;;0.80;;
34459;SDS011;20704;51.260;22.558;2023-10-08T01:49:31;2.22;;;0.82;;
34459;SDS011;20704;51.260;22.558;2023-10-08T01:51:35;1.10;;;0.55;;
34459;SDS011;20704;51.260;22.558;2023-10-08T01:53:46;2.38;;;0.98;;
34459;SDS011;20704;51.260;22.558;2023-10-08T01:55:49;2.35;;;0.63;;
34459;SDS011;20704;51.260;22.558;2023-10-08T01:57:53;4.07;;;1.00;;
34459;SDS011;20704;51.260;22.558;2023-10-08T01:59:56;4.10;;;1.35;;
34459;SDS011;20704;51.260;22.558;2023-10-08T02:01:59;4.22;;;1.38;;
34459;SDS011;20704;51.260;22.558;2023-10-08T02:04:02;1.45;;;0.80;;
34459;SDS011;20704;51.260;22.558;2023-10-08T02:06:04;2.67;;;0.80;;
34459;SDS011;20704;51.260;22.558;2023-10-08T02:08:08;5.03;;;1.00;;
34459;SDS011;20704;51.260;22.558;2023-10-08T02:10:12;2.75;;;0.80;;
34459;SDS011;20704;51.260;22.558;2023-10-08T02:12:17;2.10;;;0.82;;
34459;SDS011;20704;51.260;22.558;2023-10-08T02:14:20;3.28;;;0.90;;
34459;SDS011;20704;51.260;22.558;2023-10-08T02:16:24;2.72;;;1.20;;
34459;SDS011;20704;51.260;22.558;2023-10-08T02:18:28;4.05;;;0.90;;
34459;SDS011;20704;51.260;22.558;2023-10-08T02:20:33;1.98;;;1.00;;
34459;SDS011;20704;51.260;22.558;2023-10-08T02:22:35;3.83;;;1.15;;
34459;SDS011;20704;51.260;22.558;2023-10-08T02:24:39;6.20;;;1.40;;
34459;SDS011;20704;51.260;22.558;2023-10-08T02:26:42;3.83;;;0.90;;
34459;SDS011;20704;51.260;22.558;2023-10-08T02:28:45;4.57;;;1.42;;
34459;SDS011;20704;51.260;22.558;2023-10-08T02:30:48;2.58;;;1.10;;
34459;SDS011;20704;51.260;22.558;2023-10-08T02:32:50;3.63;;;1.10;;
34459;SDS011;20704;51.260;22.558;2023-10-08T02:34:54;3.85;;;0.93;;
34459;SDS011;20704;51.260;22.558;2023-10-08T02:36:59;3.28;;;1.13;;
34459;SDS011;20704;51.260;22.558;2023-10-08T02:39:02;5.07;;;1.30;;
34459;SDS011;20704;51.260;22.558;2023-10-08T02:41:27;2.33;;;1.40;;
34459;SDS011;20704;51.260;22.558;2023-10-08T02:43:30;2.60;;;1.17;;
34459;SDS011;20704;51.260;22.558;2023-10-08T02:45:33;2.97;;;1.17;;
34459;SDS011;20704;51.260;22.558;2023-10-08T02:47:41;4.28;;;1.23;;
34459;SDS011;20704;51.260;22.558;2023-10-08T02:49:46;3.92;;;1.70;;
34459;SDS011;20704;51.260;22.558;2023-10-08T02:51:50;3.47;;;1.95;;
34459;SDS011;20704;51.260;22.558;2023-10-08T02:53:54;3.75;;;2.08;;
34459;SDS011;20704;51.260;22.558;2023-10-08T02:55:56;6.32;;;2.20;;
34459;SDS011;20704;51.260;22.558;2023-10-08T02:58:02;4.28;;;2.50;;
34459;SDS011;20704;51.260;22.558;2023-10-08T03:00:05;6.28;;;2.55;;
34459;SDS011;20704;51.260;22.558;2023-10-08T03:02:14;8.27;;;3.53;;
34459;SDS011;20704;51.260;22.558;2023-10-08T03:04:23;9.13;;;3.05;;
34459;SDS011;20704;51.260;22.558;2023-10-08T03:06:30;8.20;;;3.33;;
34459;SDS011;20704;51.260;22.558;2023-10-08T03:08:34;6.65;;;3.22;;
34459;SDS011;20704;51.260;22.558;2023-10-08T03:10:39;8.05;;;3.42;;
34459;SDS011;20704;51.260;22.558;2023-10-08T03:12:43;10.70;;;4.75;;
34459;SDS011;20704;51.260;22.558;2023-10-08T03:14:48;7.65;;;3.85;;
34459;SDS011;20704;51.260;22.558;2023-10-08T03:17:14;15.23;;;5.18;;
34459;SDS011;20704;51.260;22.558;2023-10-08T03:19:22;13.23;;;4.80;;
34459;SDS011;20704;51.260;22.558;2023-10-08T03:21:26;12.10;;;4.93;;
34459;SDS011;20704;51.260;22.558;2023-10-08T03:23:38;15.68;;;5.57;;
34459;SDS011;20704;51.260;22.558;2023-10-08T03:25:47;15.23;;;5.38;;
34459;SDS011;20704;51.260;22.558;2023-10-08T03:27:50;15.10;;;6.78;;
34459;SDS011;20704;51.260;22.558;2023-10-08T03:29:56;14.98;;;5.32;;
34459;SDS011;20704;51.260;22.558;2023-10-08T03:32:00;15.25;;;5.60;;
34459;SDS011;20704;51.260;22.558;2023-10-08T03:34:07;17.52;;;5.60;;
34459;SDS011;20704;51.260;22.558;2023-10-08T03:36:14;17.30;;;5.78;;
34459;SDS011;20704;51.260;22.558;2023-10-08T03:38:23;14.85;;;5.15;;
34459;SDS011;20704;51.260;22.558;2023-10-08T03:40:46;17.98;;;5.38;;
34459;SDS011;20704;51.260;22.558;2023-10-08T03:42:51;12.65;;;4.35;;
34459;SDS011;20704;51.260;22.558;2023-10-08T03:44:57;18.17;;;5.90;;
34459;SDS011;20704;51.260;22.558;2023-10-08T03:47:11;14.88;;;5.35;;
34459;SDS011;20704;51.260;22.558;2023-10-08T03:49:14;12.90;;;4.38;;
34459;SDS011;20704;51.260;22.558;2023-10-08T03:51:27;9.00;;;3.38;;
34459;SDS011;20704;51.260;22.558;2023-10-08T03:53:30;8.35;;;3.30;;
34459;SDS011;20704;51.260;22.558;2023-10-08T03:55:36;10.60;;;3.70;;
34459;SDS011;20704;51.260;22.558;2023-10-08T03:57:42;6.45;;;3.50;;
34459;SDS011;20704;51.260;22.558;2023-10-08T03:59:45;12.13;;;3.40;;
34459;SDS011;20704;51.260;22.558;2023-10-08T04:01:50;6.22;;;2.90;;
34459;SDS011;20704;51.260;22.558;2023-10-08T04:03:56;5.82;;;2.88;;
34459;SDS011;20704;51.260;22.558;2023-10-08T04:06:00;6.15;;;2.83;;
34459;SDS011;20704;51.260;22.558;2023-10-08T04:08:16;4.43;;;2.92;;
34459;SDS011;20704;51.260;22.558;2023-10-08T04:10:21;7.05;;;3.45;;
34459;SDS011;20704;51.260;22.558;2023-10-08T04:12:44;5.82;;;2.30;;
34459;SDS011;20704;51.260;22.558;2023-10-08T04:14:52;4.72;;;2.40;;
34459;SDS011;20704;51.260;22.558;2023-10-08T04:16:57;7.03;;;2.40;;
34459;SDS011;20704;51.260;22.558;2023-10-08T04:19:01;5.90;;;1.88;;
34459;SDS011;20704;51.260;22.558;2023-10-08T04:21:06;2.47;;;2.00;;
34459;SDS011;20704;51.260;22.558;2023-10-08T04:23:14;4.88;;;2.55;;
34459;SDS011;20704;51.260;22.558;2023-10-08T04:25:23;5.82;;;1.92;;
34459;SDS011;20704;51.260;22.558;2023-10-08T04:27:26;4.32;;;2.03;;
34459;SDS011;20704;51.260;22.558;2023-10-08T04:29:32;3.05;;;1.63;;
34459;SDS011;20704;51.260;22.558;2023-10-08T04:31:38;3.58;;;1.70;;
34459;SDS011;20704;51.260;22.558;2023-10-08T04:33:45;3.67;;;1.55;;
34459;SDS011;20704;51.260;22.558;2023-10-08T04:35:49;2.85;;;1.67;;
34459;SDS011;20704;51.260;22.558;2023-10-08T04:37:53;3.38;;;2.30;;
34459;SDS011;20704;51.260;22.558;2023-10-08T04:39:57;2.63;;;1.85;;
34459;SDS011;20704;51.260;22.558;2023-10-08T04:42:02;3.85;;;1.90;;
34459;SDS011;20704;51.260;22.558;2023-10-08T04:44:11;2.70;;;1.75;;
34459;SDS011;20704;51.260;22.558;2023-10-08T04:46:17;6.50;;;2.55;;
34459;SDS011;20704;51.260;22.558;2023-10-08T04:48:21;4.60;;;1.58;;
34459;SDS011;20704;51.260;22.558;2023-10-08T04:50:23;5.88;;;2.35;;
34459;SDS011;20704;51.260;22.558;2023-10-08T04:52:32;4.50;;;1.63;;
34459;SDS011;20704;51.260;22.558;2023-10-08T04:54:36;4.45;;;1.80;;
34459;SDS011;20704;51.260;22.558;2023-10-08T04:56:42;3.10;;;1.60;;
34459;SDS011;20704;51.260;22.558;2023-10-08T04:58:45;5.18;;;1.83;;
34459;SDS011;20704;51.260;22.558;2023-10-08T05:00:49;6.13;;;1.77;;
34459;SDS011;20704;51.260;22.558;2023-10-08T05:03:01;8.27;;;1.45;;
34459;SDS011;20704;51.260;22.558;2023-10-08T05:05:16;3.65;;;1.63;;
34459;SDS011;20704;51.260;22.558;2023-10-08T05:07:19;8.10;;;1.95;;
34459;SDS011;20704;51.260;22.558;2023-10-08T05:09:40;4.32;;;2.60;;
34459;SDS011;20704;51.260;22.558;2023-10-08T05:11:53;3.03;;;1.63;;
34459;SDS011;20704;51.260;22.558;2023-10-08T05:13:56;4.53;;;1.60;;
34459;SDS011;20704;51.260;22.558;2023-10-08T05:16:18;2.65;;;1.88;;
34459;SDS011;20704;51.260;22.558;2023-10-08T05:18:46;5.93;;;1.92;;
34459;SDS011;20704;51.260;22.558;2023-10-08T05:21:07;4.00;;;1.85;;
34459;SDS011;20704;51.260;22.558;2023-10-08T05:23:27;4.95;;;1.92;;
34459;SDS011;20704;51.260;22.558;2023-10-08T05:25:30;7.70;;;1.95;;
34459;SDS011;20704;51.260;22.558;2023-10-08T05:27:55;3.75;;;1.90;;
34459;SDS011;20704;51.260;22.558;2023-10-08T05:30:01;3.78;;;1.75;;
34459;SDS011;20704;51.260;22.558;2023-10-08T05:32:18;4.38;;;2.38;;
34459;SDS011;20704;51.260;22.558;2023-10-08T05:34:40;3.00;;;1.77;;
34459;SDS011;20704;51.260;22.558;2023-10-08T05:36:58;4.40;;;2.17;;
34459;SDS011;20704;51.260;22.558;2023-10-08T05:39:01;6.28;;;2.28;;
34459;SDS011;20704;51.260;22.558;2023-10-08T05:41:21;5.68;;;2.90;;
34459;SDS011;20704;51.260;22.558;2023-10-08T05:43:34;7.13;;;3.35;;
34459;SDS011;20704;51.260;22.558;2023-10-08T05:45:40;5.40;;;1.80;;
34459;SDS011;20704;51.260;22.558;2023-10-08T05:47:54;5.60;;;2.13;;
34459;SDS011;20704;51.260;22.558;2023-10-08T05:50:17;3.67;;;2.08;;
34459;SDS011;20704;51.260;22.558;2023-10-08T05:52:20;5.75;;;3.03;;
34459;SDS011;20704;51.260;22.558;2023-10-08T05:54:27;4.90;;;2.60;;
34459;SDS011;20704;51.260;22.558;2023-10-08T05:56:34;4.00;;;2.00;;
34459;SDS011;20704;51.260;22.558;2023-10-08T05:58:56;3.75;;;1.83;;
34459;SDS011;20704;51.260;22.558;2023-10-08T06:01:16;7.20;;;2.22;;
34459;SDS011;20704;51.260;22.558;2023-10-08T06:03:38;4.13;;;2.53;;
34459;SDS011;20704;51.260;22.558;2023-10-08T06:06:02;4.05;;;2.17;;
34459;SDS011;20704;51.260;22.558;2023-10-08T06:08:14;2.97;;;1.83;;
34459;SDS011;20704;51.260;22.558;2023-10-08T06:10:26;4.00;;;2.20;;
34459;SDS011;20704;51.260;22.558;2023-10-08T06:12:33;6.55;;;2.40;;
34459;SDS011;20704;51.260;22.558;2023-10-08T06:14:51;4.40;;;2.00;;
34459;SDS011;20704;51.260;22.558;2023-10-08T06:17:09;4.85;;;2.20;;
34459;SDS011;20704;51.260;22.558;2023-10-08T06:19:25;4.90;;;2.88;;
34459;SDS011;20704;51.260;22.558;2023-10-08T06:21:28;6.45;;;3.00;;
34459;SDS011;20704;51.260;22.558;2023-10-08T06:23:31;4.65;;;2.03;;
34459;SDS011;20704;51.260;22.558;2023-10-08T06:25:37;3.92;;;2.72;;
34459;SDS011;20704;51.260;22.558;2023-10-08T06:27:46;3.15;;;1.95;;
34459;SDS011;20704;51.260;22.558;2023-10-08T06:29:49;4.03;;;1.85;;
34459;SDS011;20704;51.260;22.558;2023-10-08T06:31:53;5.85;;;3.35;;
34459;SDS011;20704;51.260;22.558;2023-10-08T06:33:57;3.53;;;1.88;;
34459;SDS011;20704;51.260;22.558;2023-10-08T06:36:05;4.00;;;1.88;;
34459;SDS011;20704;51.260;22.558;2023-10-08T06:40:20;3.60;;;1.98;;
34459;SDS011;20704;51.260;22.558;2023-10-08T06:42:38;2.42;;;1.58;;
34459;SDS011;20704;51.260;22.558;2023-10-08T06:44:41;3.13;;;1.85;;
34459;SDS011;20704;51.260;22.558;2023-10-08T06:46:50;6.07;;;1.90;;
34459;SDS011;20704;51.260;22.558;2023-10-08T06:48:57;7.60;;;2.00;;
34459;SDS011;20704;51.260;22.558;2023-10-08T06:51:01;5.38;;;2.10;;
34459;SDS011;20704;51.260;22.558;2023-10-08T06:53:15;6.53;;;2.05;;
34459;SDS011;20704;51.260;22.558;2023-10-08T06:55:20;4.18;;;2.08;;
34459;SDS011;20704;51.260;22.558;2023-10-08T06:57:26;3.13;;;1.40;;
34459;SDS011;20704;51.260;22.558;2023-10-08T06:59:29;7.13;;;1.67;;
34459;SDS011;20704;51.260;22.558;2023-10-08T07:01:33;4.90;;;1.70;;
34459;SDS011;20704;51.260;22.558;2023-10-08T07:03:48;4.68;;;1.52;;
34459;SDS011;20704;51.260;22.558;2023-10-08T07:05:53;4.22;;;1.45;;
34459;SDS011;20704;51.260;22.558;2023-10-08T07:07:56;2.28;;;1.50;;
34459;SDS011;20704;51.260;22.558;2023-10-08T07:09:59;4.05;;;1.50;;
34459;SDS011;20704;51.260;22.558;2023-10-08T07:12:01;3.85;;;1.40;;
34459;SDS011;20704;51.260;22.558;2023-10-08T07:14:15;3.92;;;1.55;;
34459;SDS011;20704;51.260;22.558;2023-10-08T07:16:19;3.28;;;1.50;;
34459;SDS011;20704;51.260;22.558;2023-10-08T07:18:23;2.17;;;1.20;;
34459;SDS011;20704;51.260;22.558;2023-10-08T07:20:31;2.92;;;1.35;;
34459;SDS011;20704;51.260;22.558;2023-10-08T07:22:40;1.70;;;0.88;;
34459;SDS011;20704;51.260;22.558;2023-10-08T07:24:45;5.15;;;1.42;;
34459;SDS011;20704;51.260;22.558;2023-10-08T07:26:48;3.63;;;1.55;;
34459;SDS011;20704;51.260;22.558;2023-10-08T07:28:51;2.30;;;0.98;;
34459;SDS011;20704;51.260;22.558;2023-10-08T07:30:54;1.42;;;0.85;;
34459;SDS011;20704;51.260;22.558;2023-10-08T07:32:59;2.53;;;1.10;;
34459;SDS011;20704;51.260;22.558;2023-10-08T07:35:06;5.57;;;0.80;;
34459;SDS011;20704;51.260;22.558;2023-10-08T07:37:27;3.13;;;1.10;;
34459;SDS011;20704;51.260;22.558;2023-10-08T07:39:30;1.92;;;0.90;;
34459;SDS011;20704;51.260;22.558;2023-10-08T07:41:33;2.65;;;1.30;;
34459;SDS011;20704;51.260;22.558;2023-10-08T07:43:35;2.22;;;0.98;;
34459;SDS011;20704;51.260;22.558;2023-10-08T07:45:38;2.72;;;0.95;;
34459;SDS011;20704;51.260;22.558;2023-10-08T07:47:41;2.22;;;1.00;;
34459;SDS011;20704;51.260;22.558;2023-10-08T07:49:45;1.73;;;0.82;;
34459;SDS011;20704;51.260;22.558;2023-10-08T07:51:48;3.40;;;1.08;;
34459;SDS011;20704;51.260;22.558;2023-10-08T07:53:54;2.42;;;0.80;;
34459;SDS011;20704;51.260;22.558;2023-10-08T07:55:57;0.88;;;0.50;;
34459;SDS011;20704;51.260;22.558;2023-10-08T07:58:02;0.93;;;0.50;;
34459;SDS011;20704;51.260;22.558;2023-10-08T08:00:11;1.27;;;0.63;;
34459;SDS011;20704;51.260;22.558;2023-10-08T08:02:25;2.80;;;0.60;;
34459;SDS011;20704;51.260;22.558;2023-10-08T08:04:29;1.33;;;0.82;;
34459;SDS011;20704;51.260;22.558;2023-10-08T08:06:35;6.20;;;1.08;;
34459;SDS011;20704;51.260;22.558;2023-10-08T08:08:38;1.95;;;0.63;;
34459;SDS011;20704;51.260;22.558;2023-10-08T08:10:42;1.50;;;0.43;;
34459;SDS011;20704;51.260;22.558;2023-10-08T08:12:45;0.77;;;0.30;;
34459;SDS011;20704;51.260;22.558;2023-10-08T08:14:48;1.00;;;0.38;;
34459;SDS011;20704;51.260;22.558;2023-10-08T08:16:51;1.55;;;0.38;;
34459;SDS011;20704;51.260;22.558;2023-10-08T08:18:54;1.88;;;0.80;;
34459;SDS011;20704;51.260;22.558;2023-10-08T08:20:59;0.65;;;0.30;;
34459;SDS011;20704;51.260;22.558;2023-10-08T08:23:04;1.75;;;0.50;;
34459;SDS011;20704;51.260;22.558;2023-10-08T08:25:10;1.55;;;0.30;;
34459;SDS011;20704;51.260;22.558;2023-10-08T08:27:30;2.75;;;0.40;;
34459;SDS011;20704;51.260;22.558;2023-10-08T08:29:35;0.75;;;0.40;;
34459;SDS011;20704;51.260;22.558;2023-10-08T08:31:46;1.63;;;0.68;;
34459;SDS011;20704;51.260;22.558;2023-10-08T08:33:49;4.47;;;0.50;;
34459;SDS011;20704;51.260;22.558;2023-10-08T08:35:58;0.98;;;0.32;;
34459;SDS011;20704;51.260;22.558;2023-10-08T08:38:02;0.90;;;0.40;;
34459;SDS011;20704;51.260;22.558;2023-10-08T08:40:08;0.70;;;0.30;;
34459;SDS011;20704;51.260;22.558;2023-10-08T08:42:11;0.95;;;0.30;;
34459;SDS011;20704;51.260;22.558;2023-10-08T08:44:16;1.33;;;0.40;;
34459;SDS011;20704;51.260;22.558;2023-10-08T08:46:18;0.68;;;0.40;;
34459;SDS011;20704;51.260;22.558;2023-10-08T08:48:21;1.10;;;0.47;;
34459;SDS011;20704;51.260;22.558;2023-10-08T08:50:25;0.90;;;0.45;;
34459;SDS011;20704;51.260;22.558;2023-10-08T08:52:28;2.80;;;0.52;;
34459;SDS011;20704;51.260;22.558;2023-10-08T08:54:32;2.05;;;0.40;;
34459;SDS011;20704;51.260;22.558;2023-10-08T08:56:36;1.75;;;0.50;;
34459;SDS011;20704;51.260;22.558;2023-10-08T08:58:40;0.60;;;0.30;;
34459;SDS011;20704;51.260;22.558;2023-10-08T09:00:45;0.75;;;0.30;;
34459;SDS011;20704;51.260;22.558;2023-10-08T09:02:52;0.50;;;0.30;;
34459;SDS011;20704;51.260;22.558;2023-10-08T09:04:55;1.67;;;0.55;;
34459;SDS011;20704;51.260;22.558;2023-10-08T09:07:00;2.67;;;0.47;;
34459;SDS011;20704;51.260;22.558;2023-10-08T09:09:07;1.60;;;0.50;;
34459;SDS011;20704;51.260;22.558;2023-10-08T09:11:24;2.95;;;1.00;;
34459;SDS011;20704;51.260;22.558;2023-10-08T09:13:28;0.77;;;0.50;;
34459;SDS011;20704;51.260;22.558;2023-10-08T09:15:30;1.02;;;0.40;;
34459;SDS011;20704;51.260;22.558;2023-10-08T09:17:39;2.40;;;0.30;;
34459;SDS011;20704;51.260;22.558;2023-10-08T09:19:42;2.38;;;0.57;;
34459;SDS011;20704;51.260;22.558;2023-10-08T09:24:08;1.23;;;0.30;;
34459;SDS011;20704;51.260;22.558;2023-10-08T09:26:14;0.95;;;0.30;;
34459;SDS011;20704;51.260;22.558;2023-10-08T09:28:19;2.80;;;0.60;;
34459;SDS011;20704;51.260;22.558;2023-10-08T09:30:23;1.10;;;0.43;;
34459;SDS011;20704;51.260;22.558;2023-10-08T09:32:27;0.80;;;0.50;;
34459;SDS011;20704;51.260;22.558;2023-10-08T09:34:32;3.92;;;0.50;;
34459;SDS011;20704;51.260;22.558;2023-10-08T09:36:35;1.08;;;0.77;;
34459;SDS011;20704;51.260;22.558;2023-10-08T09:38:38;1.73;;;0.50;;
34459;SDS011;20704;51.260;22.558;2023-10-08T09:40:41;3.20;;;0.50;;
34459;SDS011;20704;51.260;22.558;2023-10-08T09:42:46;1.20;;;0.50;;
34459;SDS011;20704;51.260;22.558;2023-10-08T09:44:49;2.95;;;0.47;;
34459;SDS011;20704;51.260;22.558;2023-10-08T09:46:53;1.85;;;0.60;;
34459;SDS011;20704;51.260;22.558;2023-10-08T09:49:06;2.05;;;0.60;;
34459;SDS011;20704;51.260;22.558;2023-10-08T09:51:10;1.38;;;0.60;;
34459;SDS011;20704;51.260;22.558;2023-10-08T09:53:14;2.65;;;0.73;;
34459;SDS011;20704;51.260;22.558;2023-10-08T09:55:24;0.90;;;0.40;;
34459;SDS011;20704;51.260;22.558;2023-10-08T09:57:27;1.13;;;0.77;;
34459;SDS011;20704;51.260;22.558;2023-10-08T09:59:30;0.88;;;0.40;;
34459;SDS011;20704;51.260;22.558;2023-10-08T10:01:35;0.90;;;0.50;;
34459;SDS011;20704;51.260;22.558;2023-10-08T10:03:40;2.10;;;0.82;;
34459;SDS011;20704;51.260;22.558;2023-10-08T10:05:44;0.90;;;0.40;;
34459;SDS011;20704;51.260;22.558;2023-10-08T10:07:47;2.45;;;0.50;;
34459;SDS011;20704;51.260;22.558;2023-10-08T10:09:50;1.38;;;0.40;;
34459;SDS011;20704;51.260;22.558;2023-10-08T10:11:55;2.17;;;0.70;;
34459;SDS011;20704;51.260;22.558;2023-10-08T10:13:59;1.70;;;1.20;;
34459;SDS011;20704;51.260;22.558;2023-10-08T10:16:04;1.45;;;0.70;;
34459;SDS011;20704;51.260;22.558;2023-10-08T10:20:31;2.13;;;0.40;;
34459;SDS011;20704;51.260;22.558;2023-10-08T10:22:34;1.40;;;0.63;;
34459;SDS011;20704;51.260;22.558;2023-10-08T10:24:37;2.88;;;0.40;;
34459;SDS011;20704;51.260;22.558;2023-10-08T10:26:43;0.70;;;0.38;;
34459;SDS011;20704;51.260;22.558;2023-10-08T10:31:18;1.00;;;0.50;;
34459;SDS011;20704;51.260;22.558;2023-10-08T10:33:31;1.55;;;0.32;;
34459;SDS011;20704;51.260;22.558;2023-10-08T10:35:35;1.00;;;0.52;;
34459;SDS011;20704;51.260;22.558;2023-10-08T10:37:42;6.90;;;0.55;;
34459;SDS011;20704;51.260;22.558;2023-10-08T10:39:56;4.13;;;0.68;;
34459;SDS011;20704;51.260;22.558;2023-10-08T10:42:03;2.33;;;0.50;;
34459;SDS011;20704;51.260;22.558;2023-10-08T10:44:08;1.27;;;0.52;;
34459;SDS011;20704;51.260;22.558;2023-10-08T10:46:10;2.55;;;0.57;;
34459;SDS011;20704;51.260;22.558;2023-10-08T10:48:33;2.05;;;0.60;;
34459;SDS011;20704;51.260;22.558;2023-10-08T10:50:40;3.25;;;0.52;;
34459;SDS011;20704;51.260;22.558;2023-10-08T10:52:50;3.17;;;0.88;;
34459;SDS011;20704;51.260;22.558;2023-10-08T10:54:54;2.88;;;0.88;;
34459;SDS011;20704;51.260;22.558;2023-10-08T10:57:02;0.57;;;0.32;;
34459;SDS011;20704;51.260;22.558;2023-10-08T10:59:06;1.08;;;0.50;;
34459;SDS011;20704;51.260;22.558;2023-10-08T11:01:26;2.28;;;0.70;;
34459;SDS011;20704;51.260;22.558;2023-10-08T11:03:32;1.42;;;0.80;;
34459;SDS011;20704;51.260;22.558;2023-10-08T11:05:37;1.38;;;0.60;;
34459;SDS011;20704;51.260;22.558;2023-10-08T11:07:41;1.65;;;0.50;;
34459;SDS011;20704;51.260;22.558;2023-10-08T11:09:49;1.42;;;0.55;;
34459;SDS011;20704;51.260;22.558;2023-10-08T11:11:53;1.23;;;0.47;;
34459;SDS011;20704;51.260;22.558;2023-10-08T11:13:57;1.25;;;0.40;;
34459;SDS011;20704;51.260;22.558;2023-10-08T11:16:10;0.90;;;0.47;;
34459;SDS011;20704;51.260;22.558;2023-10-08T11:18:16;0.90;;;0.30;;
34459;SDS011;20704;51.260;22.558;2023-10-08T11:20:24;1.02;;;0.50;;
34459;SDS011;20704;51.260;22.558;2023-10-08T11:22:40;1.15;;;0.30;;
34459;SDS011;20704;51.260;22.558;2023-10-08T11:24:46;2.13;;;0.88;;
34459;SDS011;20704;51.260;22.558;2023-10-08T11:26:49;0.90;;;0.60;;
34459;SDS011;20704;51.260;22.558;2023-10-08T11:29:08;0.93;;;0.35;;
34459;SDS011;20704;51.260;22.558;2023-10-08T11:31:17;1.55;;;0.45;;
34459;SDS011;20704;51.260;22.558;2023-10-08T11:33:22;1.05;;;0.38;;
34459;SDS011;20704;51.260;22.558;2023-10-08T11:35:25;1.75;;;0.40;;
34459;SDS011;20704;51.260;22.558;2023-10-08T11:37:36;2.75;;;0.80;;
34459;SDS011;20704;51.260;22.558;2023-10-08T11:39:39;1.77;;;0.50;;
34459;SDS011;20704;51.260;22.558;2023-10-08T11:41:57;1.95;;;0.28;;
34459;SDS011;20704;51.260;22.558;2023-10-08T11:44:08;1.55;;;0.65;;
34459;SDS011;20704;51.260;22.558;2023-10-08T11:46:15;0.73;;;0.60;;
34459;SDS011;20704;51.260;22.558;2023-10-08T11:48:20;2.28;;;0.50;;
34459;SDS011;20704;51.260;22.558;2023-10-08T11:50:30;5.25;;;0.57;;
34459;SDS011;20704;51.260;22.558;2023-10-08T11:52:33;0.82;;;0.50;;
34459;SDS011;20704;51.260;22.558;2023-10-08T11:54:39;1.17;;;0.47;;
34459;SDS011;20704;51.260;22.558;2023-10-08T11:56:43;0.40;;;0.30;;
34459;SDS011;20704;51.260;22.558;2023-10-08T11:58:46;0.90;;;0.45;;
34459;SDS011;20704;51.260;22.558;2023-10-08T12:00:49;0.98;;;0.60;;
34459;SDS011;20704;51.260;22.558;2023-10-08T12:02:54;0.77;;;0.20;;
34459;SDS011;20704;51.260;22.558;2023-10-08T12:04:57;1.52;;;0.40;;
34459;SDS011;20704;51.260;22.558;2023-10-08T12:07:00;1.33;;;0.63;;
34459;SDS011;20704;51.260;22.558;2023-10-08T12:09:09;0.93;;;0.50;;
34459;SDS011;20704;51.260;22.558;2023-10-08T12:11:14;1.48;;;0.40;;
34459;SDS011;20704;51.260;22.558;2023-10-08T12:13:17;0.43;;;0.38;;
34459;SDS011;20704;51.260;22.558;2023-10-08T12:15:25;0.88;;;0.50;;
34459;SDS011;20704;51.260;22.558;2023-10-08T12:17:36;0.77;;;0.28;;
34459;SDS011;20704;51.260;22.558;2023-10-08T12:19:41;0.60;;;0.25;;
34459;SDS011;20704;51.260;22.558;2023-10-08T12:21:45;1.83;;;1.17;;
34459;SDS011;20704;51.260;22.558;2023-10-08T12:23:49;0.15;;;0.10;;
34459;SDS011;20704;51.260;22.558;2023-10-08T12:25:56;0.95;;;0.40;;
34459;SDS011;20704;51.260;22.558;2023-10-08T12:27:59;1.67;;;0.40;;
34459;SDS011;20704;51.260;22.558;2023-10-08T12:30:06;3.03;;;0.57;;
34459;SDS011;20704;51.260;22.558;2023-10-08T12:32:12;1.20;;;0.52;;
34459;SDS011;20704;51.260;22.558;2023-10-08T12:34:19;1.13;;;0.30;;
34459;SDS011;20704;51.260;22.558;2023-10-08T12:36:24;1.15;;;0.45;;
34459;SDS011;20704;51.260;22.558;2023-10-08T12:38:28;2.42;;;0.40;;
34459;SDS011;20704;51.260;22.558;2023-10-08T12:40:31;16.60;;;1.10;;
34459;SDS011;20704;51.260;22.558;2023-10-08T12:42:50;0.85;;;0.30;;